sensor_id;sensor_type;location;lat;lon;timestamp;temperature;humidity
33328;DHT22;19692;52.998;9.116;2022-11-15T00:01:55;7.20;99.90
33328;DHT22;19692;52.998;9.116;2022-11-15T00:04:21;7.20;99.90
33328;DHT22;19692;52.998;9.116;2022-11-15T00:06:46;7.20;99.90
33328;DHT22;19692;52.998;9.116;2022-11-15T00:09:12;7.10;99.90
33328;DHT22;19692;52.998;9.116;2022-11-15T00:11:38;7.10;99.90
33328;DHT22;19692;52.998;9.116;2022-11-15T00:14:04;7.10;99.90
33328;DHT22;19692;52.998;9.116;2022-11-15T00:16:29;7.10;99.90
33328;DHT22;19692;52.998;9.116;2022-11-15T00:18:55;7.10;99.90
33328;DHT22;19692;52.998;9.116;2022-11-15T00:21:22;7.00;99.90
33328;DHT22;19692;52.998;9.116;2022-11-15T00:23:48;7.00;99.90
33328;DHT22;19692;52.998;9.116;2022-11-15T00:26:14;7.00;99.90
33328;DHT22;19692;52.998;9.116;2022-11-15T00:28:41;6.90;99.90
33328;DHT22;19692;52.998;9.116;2022-11-15T00:31:11;6.90;99.90
33328;DHT22;19692;52.998;9.116;2022-11-15T00:33:38;6.90;99.90
33328;DHT22;19692;52.998;9.116;2022-11-15T00:36:07;6.90;99.90
33328;DHT22;19692;52.998;9.116;2022-11-15T00:38:35;6.90;99.90
33328;DHT22;19692;52.998;9.116;2022-11-15T00:41:03;6.90;99.90
33328;DHT22;19692;52.998;9.116;2022-11-15T00:43:30;6.90;99.90
33328;DHT22;19692;52.998;9.116;2022-11-15T00:45:56;6.90;99.90
33328;DHT22;19692;52.998;9.116;2022-11-15T00:48:21;6.80;99.90
33328;DHT22;19692;52.998;9.116;2022-11-15T00:50:48;6.80;99.90
33328;DHT22;19692;52.998;9.116;2022-11-15T00:53:14;6.80;99.90
33328;DHT22;19692;52.998;9.116;2022-11-15T00:55:40;6.80;99.90
33328;DHT22;19692;52.998;9.116;2022-11-15T00:58:06;6.80;99.90
33328;DHT22;19692;52.998;9.116;2022-11-15T01:00:32;6.80;99.90
33328;DHT22;19692;52.998;9.116;2022-11-15T01:03:00;6.80;99.90
33328;DHT22;19692;52.998;9.116;2022-11-15T01:05:26;6.80;99.90
33328;DHT22;19692;52.998;9.116;2022-11-15T01:07:53;6.80;99.90
33328;DHT22;19692;52.998;9.116;2022-11-15T01:10:21;6.80;99.90
33328;DHT22;19692;52.998;9.116;2022-11-15T01:12:48;6.70;99.90
33328;DHT22;19692;52.998;9.116;2022-11-15T01:15:14;6.80;99.90
33328;DHT22;19692;52.998;9.116;2022-11-15T01:17:40;6.70;99.90
33328;DHT22;19692;52.998;9.116;2022-11-15T01:20:06;6.70;99.90
33328;DHT22;19692;52.998;9.116;2022-11-15T01:22:32;6.70;99.90
33328;DHT22;19692;52.998;9.116;2022-11-15T01:24:58;6.60;99.90
33328;DHT22;19692;52.998;9.116;2022-11-15T01:27:24;6.60;99.90
33328;DHT22;19692;52.998;9.116;2022-11-15T01:29:50;6.60;99.90
33328;DHT22;19692;52.998;9.116;2022-11-15T01:32:16;6.60;99.90
33328;DHT22;19692;52.998;9.116;2022-11-15T01:34:42;6.60;99.90
33328;DHT22;19692;52.998;9.116;2022-11-15T01:37:07;6.50;99.90
33328;DHT22;19692;52.998;9.116;2022-11-15T01:39:33;6.50;99.90
33328;DHT22;19692;52.998;9.116;2022-11-15T01:41:59;6.50;99.90
33328;DHT22;19692;52.998;9.116;2022-11-15T01:44:51;6.50;99.90
33328;DHT22;19692;52.998;9.116;2022-11-15T01:47:28;6.50;99.90
33328;DHT22;19692;52.998;9.116;2022-11-15T01:50:20;6.50;99.90
33328;DHT22;19692;52.998;9.116;2022-11-15T01:52:48;6.50;99.90
33328;DHT22;19692;52.998;9.116;2022-11-15T01:55:20;6.50;99.90
33328;DHT22;19692;52.998;9.116;2022-11-15T01:57:50;6.50;99.90
33328;DHT22;19692;52.998;9.116;2022-11-15T02:00:19;6.60;99.90
33328;DHT22;19692;52.998;9.116;2022-11-15T02:02:44;6.60;99.90
33328;DHT22;19692;52.998;9.116;2022-11-15T02:05:10;6.60;99.90
33328;DHT22;19692;52.998;9.116;2022-11-15T02:07:36;6.70;99.90
33328;DHT22;19692;52.998;9.116;2022-11-15T02:10:17;6.70;99.90
33328;DHT22;19692;52.998;9.116;2022-11-15T02:12:45;6.70;99.90
33328;DHT22;19692;52.998;9.116;2022-11-15T02:15:12;6.80;99.90
33328;DHT22;19692;52.998;9.116;2022-11-15T02:18:07;6.90;99.90
33328;DHT22;19692;52.998;9.116;2022-11-15T02:20:42;7.00;99.90
33328;DHT22;19692;52.998;9.116;2022-11-15T02:29:48;7.10;99.90
33328;DHT22;19692;52.998;9.116;2022-11-15T02:41:10;7.30;99.90
33328;DHT22;19692;52.998;9.116;2022-11-15T02:43:48;7.40;99.90
33328;DHT22;19692;52.998;9.116;2022-11-15T02:46:38;7.40;99.90
33328;DHT22;19692;52.998;9.116;2022-11-15T02:49:26;7.50;99.90
33328;DHT22;19692;52.998;9.116;2022-11-15T02:51:55;7.60;99.90
33328;DHT22;19692;52.998;9.116;2022-11-15T02:54:26;7.60;99.90
33328;DHT22;19692;52.998;9.116;2022-11-15T02:56:58;7.60;99.90
33328;DHT22;19692;52.998;9.116;2022-11-15T03:09:02;7.80;99.90
33328;DHT22;19692;52.998;9.116;2022-11-15T03:11:35;7.90;99.90
33328;DHT22;19692;52.998;9.116;2022-11-15T03:14:24;7.90;99.90
33328;DHT22;19692;52.998;9.116;2022-11-15T03:19:55;8.00;99.90
33328;DHT22;19692;52.998;9.116;2022-11-15T03:22:25;8.00;99.90
33328;DHT22;19692;52.998;9.116;2022-11-15T03:24:55;8.10;99.90
33328;DHT22;19692;52.998;9.116;2022-11-15T03:27:25;8.10;99.90
33328;DHT22;19692;52.998;9.116;2022-11-15T03:29:58;8.20;99.90
33328;DHT22;19692;52.998;9.116;2022-11-15T03:32:29;8.20;99.90
33328;DHT22;19692;52.998;9.116;2022-11-15T03:35:15;8.20;99.90
33328;DHT22;19692;52.998;9.116;2022-11-15T03:38:08;8.30;99.90
33328;DHT22;19692;52.998;9.116;2022-11-15T03:41:00;8.30;99.90
33328;DHT22;19692;52.998;9.116;2022-11-15T03:43:36;8.40;99.90
33328;DHT22;19692;52.998;9.116;2022-11-15T03:46:14;8.40;99.90
33328;DHT22;19692;52.998;9.116;2022-11-15T03:48:57;8.40;99.90
33328;DHT22;19692;52.998;9.116;2022-11-15T03:51:35;8.50;99.90
33328;DHT22;19692;52.998;9.116;2022-11-15T03:54:05;8.50;99.90
33328;DHT22;19692;52.998;9.116;2022-11-15T03:56:31;8.50;99.90
33328;DHT22;19692;52.998;9.116;2022-11-15T03:58:57;8.60;99.90
33328;DHT22;19692;52.998;9.116;2022-11-15T04:01:22;8.50;99.90
33328;DHT22;19692;52.998;9.116;2022-11-15T04:03:48;8.60;99.90
33328;DHT22;19692;52.998;9.116;2022-11-15T04:06:14;8.60;99.90
33328;DHT22;19692;52.998;9.116;2022-11-15T04:08:40;8.60;99.90
33328;DHT22;19692;52.998;9.116;2022-11-15T04:11:05;8.60;99.90
33328;DHT22;19692;52.998;9.116;2022-11-15T04:13:31;8.70;99.90
33328;DHT22;19692;52.998;9.116;2022-11-15T04:15:57;8.70;99.90
33328;DHT22;19692;52.998;9.116;2022-11-15T04:18:22;8.70;99.90
33328;DHT22;19692;52.998;9.116;2022-11-15T04:20:49;8.70;99.90
33328;DHT22;19692;52.998;9.116;2022-11-15T04:23:33;8.80;99.90
33328;DHT22;19692;52.998;9.116;2022-11-15T04:26:20;8.80;99.90
33328;DHT22;19692;52.998;9.116;2022-11-15T04:28:46;8.80;99.90
33328;DHT22;19692;52.998;9.116;2022-11-15T04:31:31;8.80;99.90
33328;DHT22;19692;52.998;9.116;2022-11-15T04:33:56;8.90;99.90
33328;DHT22;19692;52.998;9.116;2022-11-15T04:36:23;8.90;99.90
33328;DHT22;19692;52.998;9.116;2022-11-15T04:39:07;9.00;99.90
33328;DHT22;19692;52.998;9.116;2022-11-15T04:41:33;8.90;99.90
33328;DHT22;19692;52.998;9.116;2022-11-15T04:43:59;9.00;99.90
33328;DHT22;19692;52.998;9.116;2022-11-15T04:46:25;9.10;99.90
33328;DHT22;19692;52.998;9.116;2022-11-15T04:48:52;9.10;99.90
33328;DHT22;19692;52.998;9.116;2022-11-15T04:51:18;9.20;99.90
33328;DHT22;19692;52.998;9.116;2022-11-15T04:53:44;9.20;99.90
33328;DHT22;19692;52.998;9.116;2022-11-15T04:56:10;9.20;99.90
33328;DHT22;19692;52.998;9.116;2022-11-15T04:58:36;9.20;99.90
33328;DHT22;19692;52.998;9.116;2022-11-15T05:01:13;9.30;99.90
33328;DHT22;19692;52.998;9.116;2022-11-15T05:03:40;9.30;99.90
33328;DHT22;19692;52.998;9.116;2022-11-15T05:06:25;9.30;99.90
33328;DHT22;19692;52.998;9.116;2022-11-15T05:08:51;9.30;99.90
33328;DHT22;19692;52.998;9.116;2022-11-15T05:11:17;9.40;99.90
33328;DHT22;19692;52.998;9.116;2022-11-15T05:13:43;9.40;99.90
33328;DHT22;19692;52.998;9.116;2022-11-15T05:16:09;9.40;99.90
33328;DHT22;19692;52.998;9.116;2022-11-15T05:18:34;9.40;99.90
33328;DHT22;19692;52.998;9.116;2022-11-15T05:21:09;9.40;99.90
33328;DHT22;19692;52.998;9.116;2022-11-15T05:23:36;9.40;99.90
33328;DHT22;19692;52.998;9.116;2022-11-15T05:26:03;9.40;99.90
33328;DHT22;19692;52.998;9.116;2022-11-15T05:28:30;9.50;99.90
33328;DHT22;19692;52.998;9.116;2022-11-15T05:31:03;9.50;99.90
33328;DHT22;19692;52.998;9.116;2022-11-15T05:33:31;9.50;99.90
33328;DHT22;19692;52.998;9.116;2022-11-15T05:36:07;9.50;99.90
33328;DHT22;19692;52.998;9.116;2022-11-15T05:38:38;9.60;99.90
33328;DHT22;19692;52.998;9.116;2022-11-15T05:41:04;9.50;99.90
33328;DHT22;19692;52.998;9.116;2022-11-15T05:43:33;9.60;99.90
33328;DHT22;19692;52.998;9.116;2022-11-15T05:46:02;9.60;99.90
33328;DHT22;19692;52.998;9.116;2022-11-15T05:48:28;9.60;99.90
33328;DHT22;19692;52.998;9.116;2022-11-15T05:50:54;9.60;99.90
33328;DHT22;19692;52.998;9.116;2022-11-15T05:53:23;9.60;99.90
33328;DHT22;19692;52.998;9.116;2022-11-15T05:55:50;9.70;99.90
33328;DHT22;19692;52.998;9.116;2022-11-15T05:58:17;9.60;99.90
33328;DHT22;19692;52.998;9.116;2022-11-15T06:00:43;9.70;99.90
33328;DHT22;19692;52.998;9.116;2022-11-15T06:03:09;9.70;99.90
33328;DHT22;19692;52.998;9.116;2022-11-15T06:05:35;9.70;99.90
33328;DHT22;19692;52.998;9.116;2022-11-15T06:08:01;9.70;99.90
33328;DHT22;19692;52.998;9.116;2022-11-15T06:10:27;9.60;99.90
33328;DHT22;19692;52.998;9.116;2022-11-15T06:13:00;9.80;99.90
33328;DHT22;19692;52.998;9.116;2022-11-15T06:15:27;9.70;99.90
33328;DHT22;19692;52.998;9.116;2022-11-15T06:17:56;9.70;99.90
33328;DHT22;19692;52.998;9.116;2022-11-15T06:20:29;9.80;99.90
33328;DHT22;19692;52.998;9.116;2022-11-15T06:22:59;9.70;99.90
33328;DHT22;19692;52.998;9.116;2022-11-15T06:25:27;9.80;99.90
33328;DHT22;19692;52.998;9.116;2022-11-15T06:27:54;9.80;99.90
33328;DHT22;19692;52.998;9.116;2022-11-15T06:30:22;9.80;99.90
33328;DHT22;19692;52.998;9.116;2022-11-15T06:32:48;9.90;99.90
33328;DHT22;19692;52.998;9.116;2022-11-15T06:35:14;9.90;99.90
33328;DHT22;19692;52.998;9.116;2022-11-15T06:37:40;9.90;99.90
33328;DHT22;19692;52.998;9.116;2022-11-15T06:40:08;9.90;99.90
33328;DHT22;19692;52.998;9.116;2022-11-15T06:42:34;9.90;99.90
33328;DHT22;19692;52.998;9.116;2022-11-15T06:45:01;10.00;99.90
33328;DHT22;19692;52.998;9.116;2022-11-15T06:47:27;10.00;99.90
33328;DHT22;19692;52.998;9.116;2022-11-15T06:49:53;10.10;99.90
33328;DHT22;19692;52.998;9.116;2022-11-15T06:52:19;10.10;99.90
33328;DHT22;19692;52.998;9.116;2022-11-15T06:54:45;10.10;99.90
33328;DHT22;19692;52.998;9.116;2022-11-15T06:57:12;10.10;99.90
33328;DHT22;19692;52.998;9.116;2022-11-15T06:59:38;10.10;99.90
33328;DHT22;19692;52.998;9.116;2022-11-15T07:02:04;10.10;99.90
33328;DHT22;19692;52.998;9.116;2022-11-15T07:04:29;10.10;99.90
33328;DHT22;19692;52.998;9.116;2022-11-15T07:06:55;10.20;99.90
33328;DHT22;19692;52.998;9.116;2022-11-15T07:09:21;10.20;99.90
33328;DHT22;19692;52.998;9.116;2022-11-15T07:11:47;10.20;99.90
33328;DHT22;19692;52.998;9.116;2022-11-15T07:14:12;10.20;99.90
33328;DHT22;19692;52.998;9.116;2022-11-15T07:16:38;10.20;99.90
33328;DHT22;19692;52.998;9.116;2022-11-15T07:19:04;10.20;99.90
33328;DHT22;19692;52.998;9.116;2022-11-15T07:21:30;10.20;99.90
33328;DHT22;19692;52.998;9.116;2022-11-15T07:23:55;10.20;99.90
33328;DHT22;19692;52.998;9.116;2022-11-15T07:26:21;10.20;99.90
33328;DHT22;19692;52.998;9.116;2022-11-15T07:28:47;10.20;99.90
33328;DHT22;19692;52.998;9.116;2022-11-15T07:31:12;10.20;99.90
33328;DHT22;19692;52.998;9.116;2022-11-15T07:33:38;10.20;99.90
33328;DHT22;19692;52.998;9.116;2022-11-15T07:36:05;10.30;99.90
33328;DHT22;19692;52.998;9.116;2022-11-15T07:38:33;10.30;99.90
33328;DHT22;19692;52.998;9.116;2022-11-15T07:41:02;10.30;99.90
33328;DHT22;19692;52.998;9.116;2022-11-15T07:43:29;10.30;99.90
33328;DHT22;19692;52.998;9.116;2022-11-15T07:45:58;10.40;99.90
33328;DHT22;19692;52.998;9.116;2022-11-15T07:48:24;10.40;99.90
33328;DHT22;19692;52.998;9.116;2022-11-15T07:50:49;10.40;99.90
33328;DHT22;19692;52.998;9.116;2022-11-15T07:53:15;10.50;99.90
33328;DHT22;19692;52.998;9.116;2022-11-15T07:55:41;10.50;99.90
33328;DHT22;19692;52.998;9.116;2022-11-15T07:58:09;10.60;99.90
33328;DHT22;19692;52.998;9.116;2022-11-15T08:00:36;10.70;99.90
33328;DHT22;19692;52.998;9.116;2022-11-15T08:03:07;10.70;99.90
33328;DHT22;19692;52.998;9.116;2022-11-15T08:05:35;10.70;99.90
33328;DHT22;19692;52.998;9.116;2022-11-15T08:08:01;10.80;99.90
33328;DHT22;19692;52.998;9.116;2022-11-15T08:10:28;10.90;99.90
33328;DHT22;19692;52.998;9.116;2022-11-15T08:13:00;10.90;99.90
33328;DHT22;19692;52.998;9.116;2022-11-15T08:15:27;11.00;99.90
33328;DHT22;19692;52.998;9.116;2022-11-15T08:17:58;11.10;99.90
33328;DHT22;19692;52.998;9.116;2022-11-15T08:20:27;11.20;99.90
33328;DHT22;19692;52.998;9.116;2022-11-15T08:23:02;11.20;99.90
33328;DHT22;19692;52.998;9.116;2022-11-15T08:25:30;11.30;99.90
33328;DHT22;19692;52.998;9.116;2022-11-15T08:27:59;11.30;99.90
33328;DHT22;19692;52.998;9.116;2022-11-15T08:30:27;11.40;99.90
33328;DHT22;19692;52.998;9.116;2022-11-15T08:32:55;11.40;99.90
33328;DHT22;19692;52.998;9.116;2022-11-15T08:35:22;11.30;99.90
33328;DHT22;19692;52.998;9.116;2022-11-15T08:37:49;11.30;99.90
33328;DHT22;19692;52.998;9.116;2022-11-15T08:40:15;11.30;99.90
33328;DHT22;19692;52.998;9.116;2022-11-15T08:42:41;11.30;99.90
33328;DHT22;19692;52.998;9.116;2022-11-15T08:45:07;11.30;99.90
33328;DHT22;19692;52.998;9.116;2022-11-15T08:47:34;11.30;99.90
33328;DHT22;19692;52.998;9.116;2022-11-15T08:50:00;11.30;99.90
33328;DHT22;19692;52.998;9.116;2022-11-15T08:52:25;11.30;99.90
33328;DHT22;19692;52.998;9.116;2022-11-15T08:54:51;11.30;99.90
33328;DHT22;19692;52.998;9.116;2022-11-15T08:57:17;11.30;99.90
33328;DHT22;19692;52.998;9.116;2022-11-15T08:59:43;11.30;99.90
33328;DHT22;19692;52.998;9.116;2022-11-15T09:02:13;11.40;99.90
33328;DHT22;19692;52.998;9.116;2022-11-15T09:04:43;11.40;99.90
33328;DHT22;19692;52.998;9.116;2022-11-15T09:07:10;11.40;99.90
33328;DHT22;19692;52.998;9.116;2022-11-15T09:09:36;11.40;99.90
33328;DHT22;19692;52.998;9.116;2022-11-15T09:12:02;11.30;99.90
33328;DHT22;19692;52.998;9.116;2022-11-15T09:14:29;11.30;99.90
33328;DHT22;19692;52.998;9.116;2022-11-15T09:16:54;11.20;99.90
33328;DHT22;19692;52.998;9.116;2022-11-15T09:19:20;11.20;99.90
33328;DHT22;19692;52.998;9.116;2022-11-15T09:21:46;11.30;99.90
33328;DHT22;19692;52.998;9.116;2022-11-15T09:24:12;11.20;99.90
33328;DHT22;19692;52.998;9.116;2022-11-15T09:26:39;11.20;99.90
33328;DHT22;19692;52.998;9.116;2022-11-15T09:29:05;11.30;99.90
33328;DHT22;19692;52.998;9.116;2022-11-15T09:31:30;11.30;99.90
33328;DHT22;19692;52.998;9.116;2022-11-15T09:33:56;11.30;99.90
33328;DHT22;19692;52.998;9.116;2022-11-15T09:36:22;11.20;99.90
33328;DHT22;19692;52.998;9.116;2022-11-15T09:38:47;11.30;99.90
33328;DHT22;19692;52.998;9.116;2022-11-15T09:49:30;11.40;99.90
33328;DHT22;19692;52.998;9.116;2022-11-15T09:51:57;11.40;99.90
33328;DHT22;19692;52.998;9.116;2022-11-15T09:54:38;11.40;99.90
33328;DHT22;19692;52.998;9.116;2022-11-15T09:57:17;11.40;99.90
33328;DHT22;19692;52.998;9.116;2022-11-15T10:00:17;11.50;99.90
33328;DHT22;19692;52.998;9.116;2022-11-15T10:03:09;11.60;99.90
33328;DHT22;19692;52.998;9.116;2022-11-15T10:05:45;11.70;99.90
33328;DHT22;19692;52.998;9.116;2022-11-15T10:08:30;11.80;99.90
33328;DHT22;19692;52.998;9.116;2022-11-15T10:11:03;11.90;99.90
33328;DHT22;19692;52.998;9.116;2022-11-15T10:13:33;12.30;99.90
33328;DHT22;19692;52.998;9.116;2022-11-15T10:16:39;12.70;99.90
33328;DHT22;19692;52.998;9.116;2022-11-15T10:22:51;12.90;99.90
33328;DHT22;19692;52.998;9.116;2022-11-15T10:25:24;12.90;99.90
33328;DHT22;19692;52.998;9.116;2022-11-15T10:30:20;12.90;99.90
33328;DHT22;19692;52.998;9.116;2022-11-15T10:32:47;12.80;99.90
33328;DHT22;19692;52.998;9.116;2022-11-15T10:35:28;12.70;99.90
33328;DHT22;19692;52.998;9.116;2022-11-15T10:38:09;12.70;99.90
33328;DHT22;19692;52.998;9.116;2022-11-15T10:40:37;12.60;99.90
33328;DHT22;19692;52.998;9.116;2022-11-15T10:43:16;12.70;99.90
33328;DHT22;19692;52.998;9.116;2022-11-15T10:45:43;12.80;99.90
33328;DHT22;19692;52.998;9.116;2022-11-15T10:50:40;12.80;99.90
33328;DHT22;19692;52.998;9.116;2022-11-15T10:56:13;12.90;99.90
33328;DHT22;19692;52.998;9.116;2022-11-15T10:58:50;13.00;99.90
33328;DHT22;19692;52.998;9.116;2022-11-15T11:01:19;13.00;99.90
33328;DHT22;19692;52.998;9.116;2022-11-15T11:04:17;13.10;99.90
33328;DHT22;19692;52.998;9.116;2022-11-15T11:06:58;13.10;99.90
33328;DHT22;19692;52.998;9.116;2022-11-15T11:09:35;13.10;99.90
33328;DHT22;19692;52.998;9.116;2022-11-15T11:12:06;13.20;99.90
33328;DHT22;19692;52.998;9.116;2022-11-15T11:14:37;13.20;99.90
33328;DHT22;19692;52.998;9.116;2022-11-15T11:17:22;13.30;99.90
33328;DHT22;19692;52.998;9.116;2022-11-15T11:31:45;13.80;99.90
33328;DHT22;19692;52.998;9.116;2022-11-15T11:40:28;14.50;99.90
33328;DHT22;19692;52.998;9.116;2022-11-15T11:43:30;14.60;99.90
33328;DHT22;19692;52.998;9.116;2022-11-15T11:46:31;14.60;99.90
33328;DHT22;19692;52.998;9.116;2022-11-15T11:49:28;14.70;99.90
33328;DHT22;19692;52.998;9.116;2022-11-15T11:52:24;14.80;99.90
33328;DHT22;19692;52.998;9.116;2022-11-15T11:58:09;15.70;99.90
33328;DHT22;19692;52.998;9.116;2022-11-15T12:00:46;16.20;99.90
33328;DHT22;19692;52.998;9.116;2022-11-15T12:03:34;16.30;99.90
33328;DHT22;19692;52.998;9.116;2022-11-15T12:06:19;16.30;99.90
33328;DHT22;19692;52.998;9.116;2022-11-15T12:09:19;16.40;99.90
33328;DHT22;19692;52.998;9.116;2022-11-15T12:12:04;17.00;99.90
33328;DHT22;19692;52.998;9.116;2022-11-15T12:14:55;17.00;99.90
33328;DHT22;19692;52.998;9.116;2022-11-15T12:17:25;16.80;99.90
33328;DHT22;19692;52.998;9.116;2022-11-15T12:19:56;16.70;99.90
33328;DHT22;19692;52.998;9.116;2022-11-15T12:22:24;16.90;99.90
33328;DHT22;19692;52.998;9.116;2022-11-15T12:25:05;16.70;99.90
33328;DHT22;19692;52.998;9.116;2022-11-15T12:28:02;16.80;99.90
33328;DHT22;19692;52.998;9.116;2022-11-15T12:30:54;16.90;99.90
33328;DHT22;19692;52.998;9.116;2022-11-15T12:33:32;16.90;99.90
33328;DHT22;19692;52.998;9.116;2022-11-15T12:39:16;16.80;99.90
33328;DHT22;19692;52.998;9.116;2022-11-15T12:41:44;17.00;99.90
33328;DHT22;19692;52.998;9.116;2022-11-15T12:52:03;16.90;99.90
33328;DHT22;19692;52.998;9.116;2022-11-15T12:57:33;16.80;99.90
33328;DHT22;19692;52.998;9.116;2022-11-15T13:03:27;17.10;99.90
33328;DHT22;19692;52.998;9.116;2022-11-15T13:05:58;17.10;99.90
33328;DHT22;19692;52.998;9.116;2022-11-15T13:08:43;16.80;99.90
33328;DHT22;19692;52.998;9.116;2022-11-15T13:11:54;16.90;99.90
33328;DHT22;19692;52.998;9.116;2022-11-15T13:14:45;16.80;99.90
33328;DHT22;19692;52.998;9.116;2022-11-15T13:22:41;16.50;99.90
33328;DHT22;19692;52.998;9.116;2022-11-15T13:25:37;16.50;99.90
33328;DHT22;19692;52.998;9.116;2022-11-15T13:28:29;16.70;99.90
33328;DHT22;19692;52.998;9.116;2022-11-15T13:34:27;17.30;99.90
33328;DHT22;19692;52.998;9.116;2022-11-15T13:37:13;17.40;99.90
33328;DHT22;19692;52.998;9.116;2022-11-15T13:40:28;17.60;99.90
33328;DHT22;19692;52.998;9.116;2022-11-15T13:43:00;18.10;99.90
33328;DHT22;19692;52.998;9.116;2022-11-15T13:45:43;18.20;99.90
33328;DHT22;19692;52.998;9.116;2022-11-15T13:48:24;17.80;99.90
33328;DHT22;19692;52.998;9.116;2022-11-15T13:50:56;17.80;99.90
33328;DHT22;19692;52.998;9.116;2022-11-15T13:53:25;17.40;99.90
33328;DHT22;19692;52.998;9.116;2022-11-15T13:55:57;17.20;99.90
33328;DHT22;19692;52.998;9.116;2022-11-15T13:58:29;17.10;99.90
33328;DHT22;19692;52.998;9.116;2022-11-15T14:01:05;17.10;99.90
33328;DHT22;19692;52.998;9.116;2022-11-15T14:03:46;16.90;99.90
33328;DHT22;19692;52.998;9.116;2022-11-15T14:06:20;17.00;99.90
33328;DHT22;19692;52.998;9.116;2022-11-15T14:11:52;16.90;99.90
33328;DHT22;19692;52.998;9.116;2022-11-15T14:14:28;17.20;99.90
33328;DHT22;19692;52.998;9.116;2022-11-15T14:16:58;17.40;99.90
33328;DHT22;19692;52.998;9.116;2022-11-15T14:22:19;17.00;99.90
33328;DHT22;19692;52.998;9.116;2022-11-15T14:25:15;16.90;99.90
33328;DHT22;19692;52.998;9.116;2022-11-15T14:28:28;16.40;99.90
33328;DHT22;19692;52.998;9.116;2022-11-15T14:31:00;16.00;99.90
33328;DHT22;19692;52.998;9.116;2022-11-15T14:33:37;15.70;99.90
33328;DHT22;19692;52.998;9.116;2022-11-15T14:36:14;15.50;99.90
33328;DHT22;19692;52.998;9.116;2022-11-15T14:39:03;15.20;99.90
33328;DHT22;19692;52.998;9.116;2022-11-15T14:41:36;14.90;99.90
33328;DHT22;19692;52.998;9.116;2022-11-15T14:47:26;14.60;99.90
33328;DHT22;19692;52.998;9.116;2022-11-15T14:50:24;14.40;99.90
33328;DHT22;19692;52.998;9.116;2022-11-15T14:52:57;14.30;99.90
33328;DHT22;19692;52.998;9.116;2022-11-15T14:55:32;14.20;99.90
33328;DHT22;19692;52.998;9.116;2022-11-15T14:58:06;14.10;99.90
33328;DHT22;19692;52.998;9.116;2022-11-15T15:00:41;13.90;99.90
33328;DHT22;19692;52.998;9.116;2022-11-15T15:03:15;13.90;99.90
33328;DHT22;19692;52.998;9.116;2022-11-15T15:05:53;13.80;99.90
33328;DHT22;19692;52.998;9.116;2022-11-15T15:08:28;13.70;99.90
33328;DHT22;19692;52.998;9.116;2022-11-15T15:11:15;13.70;99.90
33328;DHT22;19692;52.998;9.116;2022-11-15T15:13:50;13.60;99.90
33328;DHT22;19692;52.998;9.116;2022-11-15T15:16:16;13.60;99.90
33328;DHT22;19692;52.998;9.116;2022-11-15T15:18:42;13.50;99.90
33328;DHT22;19692;52.998;9.116;2022-11-15T15:21:24;13.50;99.90
33328;DHT22;19692;52.998;9.116;2022-11-15T15:23:52;13.40;99.90
33328;DHT22;19692;52.998;9.116;2022-11-15T15:26:22;13.40;99.90
33328;DHT22;19692;52.998;9.116;2022-11-15T15:28:50;13.30;99.90
33328;DHT22;19692;52.998;9.116;2022-11-15T15:31:19;13.30;99.90
33328;DHT22;19692;52.998;9.116;2022-11-15T15:33:45;13.30;99.90
33328;DHT22;19692;52.998;9.116;2022-11-15T15:36:17;13.20;99.90
33328;DHT22;19692;52.998;9.116;2022-11-15T15:38:43;13.20;99.90
33328;DHT22;19692;52.998;9.116;2022-11-15T15:41:14;13.10;99.90
33328;DHT22;19692;52.998;9.116;2022-11-15T15:43:43;13.10;99.90
33328;DHT22;19692;52.998;9.116;2022-11-15T15:46:12;13.00;99.90
33328;DHT22;19692;52.998;9.116;2022-11-15T15:48:42;12.90;99.90
33328;DHT22;19692;52.998;9.116;2022-11-15T15:51:14;12.80;99.90
33328;DHT22;19692;52.998;9.116;2022-11-15T15:53:40;12.90;99.90
33328;DHT22;19692;52.998;9.116;2022-11-15T15:56:09;12.80;99.90
33328;DHT22;19692;52.998;9.116;2022-11-15T15:58:35;12.80;99.90
33328;DHT22;19692;52.998;9.116;2022-11-15T16:01:00;12.70;99.90
33328;DHT22;19692;52.998;9.116;2022-11-15T16:03:26;12.70;99.90
33328;DHT22;19692;52.998;9.116;2022-11-15T16:05:53;12.70;99.90
33328;DHT22;19692;52.998;9.116;2022-11-15T16:08:21;12.60;99.90
33328;DHT22;19692;52.998;9.116;2022-11-15T16:10:48;12.60;99.90
33328;DHT22;19692;52.998;9.116;2022-11-15T16:13:15;12.60;99.90
33328;DHT22;19692;52.998;9.116;2022-11-15T16:15:41;12.50;99.90
33328;DHT22;19692;52.998;9.116;2022-11-15T16:18:14;12.50;99.90
33328;DHT22;19692;52.998;9.116;2022-11-15T16:20:44;12.50;99.90
33328;DHT22;19692;52.998;9.116;2022-11-15T16:23:16;12.50;99.90
33328;DHT22;19692;52.998;9.116;2022-11-15T16:25:51;12.40;99.90
33328;DHT22;19692;52.998;9.116;2022-11-15T16:28:27;12.30;99.90
33328;DHT22;19692;52.998;9.116;2022-11-15T16:31:04;12.30;99.90
33328;DHT22;19692;52.998;9.116;2022-11-15T16:33:31;12.20;99.90
33328;DHT22;19692;52.998;9.116;2022-11-15T16:35:57;12.20;99.90
33328;DHT22;19692;52.998;9.116;2022-11-15T16:38:22;12.20;99.90
33328;DHT22;19692;52.998;9.116;2022-11-15T16:40:48;12.20;99.90
33328;DHT22;19692;52.998;9.116;2022-11-15T16:43:14;12.20;99.90
33328;DHT22;19692;52.998;9.116;2022-11-15T16:45:40;12.10;99.90
33328;DHT22;19692;52.998;9.116;2022-11-15T16:48:06;12.20;99.90
33328;DHT22;19692;52.998;9.116;2022-11-15T16:50:44;12.20;99.90
33328;DHT22;19692;52.998;9.116;2022-11-15T16:53:10;12.20;99.90
33328;DHT22;19692;52.998;9.116;2022-11-15T16:55:36;12.10;99.90
33328;DHT22;19692;52.998;9.116;2022-11-15T16:58:02;12.10;99.90
33328;DHT22;19692;52.998;9.116;2022-11-15T17:00:27;12.10;99.90
33328;DHT22;19692;52.998;9.116;2022-11-15T17:02:53;12.20;99.90
33328;DHT22;19692;52.998;9.116;2022-11-15T17:05:22;12.20;99.90
33328;DHT22;19692;52.998;9.116;2022-11-15T17:07:50;12.20;99.90
33328;DHT22;19692;52.998;9.116;2022-11-15T17:10:24;12.20;99.90
33328;DHT22;19692;52.998;9.116;2022-11-15T17:12:51;12.20;99.90
33328;DHT22;19692;52.998;9.116;2022-11-15T17:15:17;12.30;99.90
33328;DHT22;19692;52.998;9.116;2022-11-15T17:17:43;12.30;99.90
33328;DHT22;19692;52.998;9.116;2022-11-15T17:20:14;12.20;99.90
33328;DHT22;19692;52.998;9.116;2022-11-15T17:22:41;12.30;99.90
33328;DHT22;19692;52.998;9.116;2022-11-15T17:25:08;12.20;99.90
33328;DHT22;19692;52.998;9.116;2022-11-15T17:27:34;12.20;99.90
33328;DHT22;19692;52.998;9.116;2022-11-15T17:29:59;12.20;99.90
33328;DHT22;19692;52.998;9.116;2022-11-15T17:32:25;12.20;99.90
33328;DHT22;19692;52.998;9.116;2022-11-15T17:34:51;12.10;99.90
33328;DHT22;19692;52.998;9.116;2022-11-15T17:37:17;12.20;99.90
33328;DHT22;19692;52.998;9.116;2022-11-15T17:39:42;12.20;99.90
33328;DHT22;19692;52.998;9.116;2022-11-15T17:42:08;12.20;99.90
33328;DHT22;19692;52.998;9.116;2022-11-15T17:44:34;12.20;99.90
33328;DHT22;19692;52.998;9.116;2022-11-15T17:47:00;12.10;99.90
33328;DHT22;19692;52.998;9.116;2022-11-15T17:49:25;12.10;99.90